Ammon, Idaho
Current Conditions -  °F | °C
As of 12:53 AM on Tuesday 21 Oct 2014 (Local Time) from KIDA Reporting Station
Broken Clouds Broken Clouds  
Wind Chill:   Ceiling: 10000
Heat Index:   Visibility: 10mi
Dew Point:   Wind: 8mph
Humidity: 66%   Direction: 240°WSW
Pressure: 29.87"   Gusts: NA
Location:  43.4284°N, 111.925°W
Report Text: KIDA 210653Z AUTO 24007KT 10SM BKN100 09/03 A2987 RMK AO2 SLP086 T00890028 402330006
Loading
Personal Weather Stations






























Interactive Weather Map
Tropical Storm Tracking
New forecast layout! Learn more

10-Day Weather Forecast

Advertisements
Track Severe Weather on mobile